sensor_id;sensor_type;location;lat;lon;timestamp;pressure;altitude;pressure_sealevel;temperature;humidity
40574;BME280;26283;49.020;8.644;2023-03-22T00:02:21;99109.37;;;15.04;55.89
40574;BME280;26283;49.020;8.644;2023-03-22T00:04:47;99108.53;;;15.03;56.01
40574;BME280;26283;49.020;8.644;2023-03-22T00:07:13;99105.25;;;15.01;56.08
40574;BME280;26283;49.020;8.644;2023-03-22T00:09:38;99106.06;;;15.02;56.21
40574;BME280;26283;49.020;8.644;2023-03-22T00:12:04;99108.22;;;15.00;56.30
40574;BME280;26283;49.020;8.644;2023-03-22T00:14:29;99104.69;;;14.99;56.27
40574;BME280;26283;49.020;8.644;2023-03-22T00:16:55;99094.91;;;14.98;56.30
40574;BME280;26283;49.020;8.644;2023-03-22T00:19:20;99097.88;;;14.97;56.27
40574;BME280;26283;49.020;8.644;2023-03-22T00:21:46;99093.50;;;14.96;56.42
40574;BME280;26283;49.020;8.644;2023-03-22T00:24:11;99092.69;;;14.95;56.33
40574;BME280;26283;49.020;8.644;2023-03-22T00:26:37;99099.19;;;14.94;56.47
40574;BME280;26283;49.020;8.644;2023-03-22T00:29:02;99085.06;;;14.92;56.63
40574;BME280;26283;49.020;8.644;2023-03-22T00:31:28;99090.50;;;14.92;56.54
40574;BME280;26283;49.020;8.644;2023-03-22T00:33:53;99095.09;;;14.92;56.59
40574;BME280;26283;49.020;8.644;2023-03-22T00:36:18;99088.03;;;14.91;56.63
40574;BME280;26283;49.020;8.644;2023-03-22T00:38:44;99078.25;;;14.90;56.68
40574;BME280;26283;49.020;8.644;2023-03-22T00:43:37;99075.78;;;14.88;56.83
40574;BME280;26283;49.020;8.644;2023-03-22T00:46:03;99067.91;;;14.87;56.83
40574;BME280;26283;49.020;8.644;2023-03-22T00:48:29;99068.97;;;14.86;56.77
40574;BME280;26283;49.020;8.644;2023-03-22T00:50:55;99067.31;;;14.85;56.77
40574;BME280;26283;49.020;8.644;2023-03-22T00:53:20;99058.38;;;14.84;56.85
40574;BME280;26283;49.020;8.644;2023-03-22T00:55:46;99058.38;;;14.84;56.88
40574;BME280;26283;49.020;8.644;2023-03-22T00:58:11;99053.44;;;14.81;56.81
40574;BME280;26283;49.020;8.644;2023-03-22T01:00:36;99053.19;;;14.83;56.86
40574;BME280;26283;49.020;8.644;2023-03-22T01:03:02;99048.00;;;14.81;56.86
40574;BME280;26283;49.020;8.644;2023-03-22T01:05:32;99042.84;;;14.80;56.92
40574;BME280;26283;49.020;8.644;2023-03-22T01:08:01;99046.38;;;14.80;57.02
40574;BME280;26283;49.020;8.644;2023-03-22T01:10:33;99039.31;;;14.79;56.91
40574;BME280;26283;49.020;8.644;2023-03-22T01:12:58;99037.66;;;14.78;56.85
40574;BME280;26283;49.020;8.644;2023-03-22T01:15:24;99036.03;;;14.77;56.97
40574;BME280;26283;49.020;8.644;2023-03-22T01:17:50;99032.47;;;14.77;56.93
40574;BME280;26283;49.020;8.644;2023-03-22T01:20:15;99031.66;;;14.76;56.87
40574;BME280;26283;49.020;8.644;2023-03-22T01:22:41;99030.03;;;14.75;56.75
40574;BME280;26283;49.020;8.644;2023-03-22T01:25:06;99030.03;;;14.75;56.68
40574;BME280;26283;49.020;8.644;2023-03-22T01:27:32;99023.78;;;14.74;56.81
40574;BME280;26283;49.020;8.644;2023-03-22T01:29:57;99030.28;;;14.73;56.73
40574;BME280;26283;49.020;8.644;2023-03-22T01:32:22;99019.69;;;14.72;56.61
40574;BME280;26283;49.020;8.644;2023-03-22T01:34:48;99019.69;;;14.72;56.65
40574;BME280;26283;49.020;8.644;2023-03-22T01:37:13;99012.63;;;14.71;56.63
40574;BME280;26283;49.020;8.644;2023-03-22T01:39:39;99019.94;;;14.70;56.50
40574;BME280;26283;49.020;8.644;2023-03-22T01:42:04;99018.06;;;14.71;56.56
40574;BME280;26283;49.020;8.644;2023-03-22T01:44:30;99014.78;;;14.69;56.57
40574;BME280;26283;49.020;8.644;2023-03-22T01:46:56;99012.31;;;14.67;56.60
40574;BME280;26283;49.020;8.644;2023-03-22T01:49:27;99017.50;;;14.69;56.57
40574;BME280;26283;49.020;8.644;2023-03-22T01:51:58;99011.75;;;14.65;56.76
40574;BME280;26283;49.020;8.644;2023-03-22T01:54:40;99009.03;;;14.65;56.58
40574;BME280;26283;49.020;8.644;2023-03-22T01:57:08;99005.50;;;14.65;56.82
40574;BME280;26283;49.020;8.644;2023-03-22T01:59:34;99003.84;;;14.64;56.63
40574;BME280;26283;49.020;8.644;2023-03-22T02:02:00;99007.63;;;14.63;56.67
40574;BME280;26283;49.020;8.644;2023-03-22T02:04:30;99004.94;;;14.63;56.72
40574;BME280;26283;49.020;8.644;2023-03-22T02:07:03;99005.75;;;14.63;56.73
40574;BME280;26283;49.020;8.644;2023-03-22T02:09:36;99000.00;;;14.60;56.71
40574;BME280;26283;49.020;8.644;2023-03-22T02:23:19;99002.63;;;14.55;56.85
40574;BME280;26283;49.020;8.644;2023-03-22T02:29:03;98999.34;;;14.53;57.04
40574;BME280;26283;49.020;8.644;2023-03-22T02:34:19;98995.53;;;14.49;56.77
40574;BME280;26283;49.020;8.644;2023-03-22T02:45:44;99006.88;;;14.46;57.00
40574;BME280;26283;49.020;8.644;2023-03-22T02:48:17;99001.69;;;14.44;56.76
40574;BME280;26283;49.020;8.644;2023-03-22T02:50:52;98992.50;;;14.45;56.72
40574;BME280;26283;49.020;8.644;2023-03-22T02:53:44;98999.22;;;14.43;56.84
40574;BME280;26283;49.020;8.644;2023-03-22T02:56:18;99004.66;;;14.43;56.93
40574;BME280;26283;49.020;8.644;2023-03-22T02:58:48;98998.41;;;14.42;56.72
40574;BME280;26283;49.020;8.644;2023-03-22T03:01:24;98989.44;;;14.42;56.79
40574;BME280;26283;49.020;8.644;2023-03-22T03:03:53;98993.22;;;14.40;56.88
40574;BME280;26283;49.020;8.644;2023-03-22T03:06:22;98995.94;;;14.40;56.75
40574;BME280;26283;49.020;8.644;2023-03-22T03:08:50;98996.97;;;14.39;56.69
40574;BME280;26283;49.020;8.644;2023-03-22T03:11:18;98992.63;;;14.38;56.78
40574;BME280;26283;49.020;8.644;2023-03-22T03:13:46;98999.69;;;14.39;56.77
40574;BME280;26283;49.020;8.644;2023-03-22T03:16:12;98989.09;;;14.38;56.61
40574;BME280;26283;49.020;8.644;2023-03-22T03:19:01;98982.03;;;14.37;56.52
40574;BME280;26283;49.020;8.644;2023-03-22T03:27:12;98976.84;;;14.35;56.68
40574;BME280;26283;49.020;8.644;2023-03-22T03:29:46;98974.41;;;14.34;56.77
40574;BME280;26283;49.020;8.644;2023-03-22T03:32:23;98973.56;;;14.33;56.46
40574;BME280;26283;49.020;8.644;2023-03-22T03:35:00;98973.56;;;14.33;56.66
40574;BME280;26283;49.020;8.644;2023-03-22T03:37:45;98971.09;;;14.32;56.43
40574;BME280;26283;49.020;8.644;2023-03-22T03:40:28;98981.13;;;14.31;56.66
40574;BME280;26283;49.020;8.644;2023-03-22T03:42:56;98970.53;;;14.30;56.66
40574;BME280;26283;49.020;8.644;2023-03-22T03:45:24;98973.25;;;14.30;56.29
40574;BME280;26283;49.020;8.644;2023-03-22T03:47:51;98965.41;;;14.28;56.28
40574;BME280;26283;49.020;8.644;2023-03-22T03:50:22;98971.87;;;14.27;56.27
40574;BME280;26283;49.020;8.644;2023-03-22T03:52:48;98968.09;;;14.28;56.20
40574;BME280;26283;49.020;8.644;2023-03-22T03:55:14;98963.75;;;14.27;56.15
40574;BME280;26283;49.020;8.644;2023-03-22T03:57:39;98960.22;;;14.27;56.07
40574;BME280;26283;49.020;8.644;2023-03-22T04:00:05;98959.16;;;14.28;56.12
40574;BME280;26283;49.020;8.644;2023-03-22T04:02:30;98959.41;;;14.26;56.05
40574;BME280;26283;49.020;8.644;2023-03-22T04:04:56;98961.28;;;14.26;56.17
40574;BME280;26283;49.020;8.644;2023-03-22T04:07:21;98964.81;;;14.26;56.07
40574;BME280;26283;49.020;8.644;2023-03-22T04:09:46;98956.94;;;14.25;56.05
40574;BME280;26283;49.020;8.644;2023-03-22T04:12:12;98955.28;;;14.24;56.09
40574;BME280;26283;49.020;8.644;2023-03-22T04:14:37;98957.19;;;14.23;56.07
40574;BME280;26283;49.020;8.644;2023-03-22T04:17:02;98957.19;;;14.23;56.04
40574;BME280;26283;49.020;8.644;2023-03-22T04:19:28;98968.28;;;14.22;56.05
40574;BME280;26283;49.020;8.644;2023-03-22T04:21:53;98963.91;;;14.21;55.91
40574;BME280;26283;49.020;8.644;2023-03-22T04:24:20;98963.91;;;14.21;55.91
40574;BME280;26283;49.020;8.644;2023-03-22T04:26:46;98963.09;;;14.20;55.87
40574;BME280;26283;49.020;8.644;2023-03-22T04:29:11;98965.81;;;14.20;55.84
40574;BME280;26283;49.020;8.644;2023-03-22T04:31:37;98954.41;;;14.18;55.69
40574;BME280;26283;49.020;8.644;2023-03-22T04:34:03;98953.31;;;14.19;55.81
40574;BME280;26283;49.020;8.644;2023-03-22T04:36:35;98950.63;;;14.19;55.71
40574;BME280;26283;49.020;8.644;2023-03-22T04:39:08;98941.66;;;14.19;55.74
40574;BME280;26283;49.020;8.644;2023-03-22T04:41:34;98944.38;;;14.19;55.77
40574;BME280;26283;49.020;8.644;2023-03-22T04:44:01;98941.91;;;14.17;55.70
40574;BME280;26283;49.020;8.644;2023-03-22T04:46:30;98941.09;;;14.17;55.85
40574;BME280;26283;49.020;8.644;2023-03-22T04:48:56;98939.44;;;14.16;55.79
40574;BME280;26283;49.020;8.644;2023-03-22T04:51:22;98941.34;;;14.15;55.67
40574;BME280;26283;49.020;8.644;2023-03-22T04:53:47;98941.34;;;14.15;55.75
40574;BME280;26283;49.020;8.644;2023-03-22T04:56:14;98930.75;;;14.14;55.77
40574;BME280;26283;49.020;8.644;2023-03-22T04:58:40;98938.88;;;14.14;55.80
40574;BME280;26283;49.020;8.644;2023-03-22T05:01:11;98934.53;;;14.13;55.79
40574;BME280;26283;49.020;8.644;2023-03-22T05:03:36;98933.72;;;14.12;55.85
40574;BME280;26283;49.020;8.644;2023-03-22T05:06:04;98939.13;;;14.12;55.84
40574;BME280;26283;49.020;8.644;2023-03-22T05:08:30;98933.13;;;14.10;55.71
40574;BME280;26283;49.020;8.644;2023-03-22T05:10:57;98930.44;;;14.10;55.83
40574;BME280;26283;49.020;8.644;2023-03-22T05:13:25;98931.25;;;14.11;55.78
40574;BME280;26283;49.020;8.644;2023-03-22T05:15:51;98934.19;;;14.09;55.75
40574;BME280;26283;49.020;8.644;2023-03-22T05:18:19;98943.41;;;14.08;55.82
40574;BME280;26283;49.020;8.644;2023-03-22T05:20:46;98948.00;;;14.07;55.77
40574;BME280;26283;49.020;8.644;2023-03-22T05:23:12;98944.50;;;14.07;55.76
40574;BME280;26283;49.020;8.644;2023-03-22T05:25:38;98943.69;;;14.06;55.77
40574;BME280;26283;49.020;8.644;2023-03-22T05:28:05;98948.28;;;14.06;55.76
40574;BME280;26283;49.020;8.644;2023-03-22T05:30:31;98945.56;;;14.06;55.73
40574;BME280;26283;49.020;8.644;2023-03-22T05:33:01;98945.81;;;14.04;55.72
40574;BME280;26283;49.020;8.644;2023-03-22T05:35:29;98945.81;;;14.04;55.72
40574;BME280;26283;49.020;8.644;2023-03-22T05:37:56;98946.06;;;14.03;55.69
40574;BME280;26283;49.020;8.644;2023-03-22T05:40:22;98950.66;;;14.02;55.68
40574;BME280;26283;49.020;8.644;2023-03-22T05:42:47;98951.47;;;14.03;55.68
40574;BME280;26283;49.020;8.644;2023-03-22T05:45:13;98953.38;;;14.02;55.61
40574;BME280;26283;49.020;8.644;2023-03-22T05:47:38;98954.44;;;14.01;55.63
40574;BME280;26283;49.020;8.644;2023-03-22T05:50:05;98953.59;;;14.01;55.64
40574;BME280;26283;49.020;8.644;2023-03-22T05:52:31;98959.03;;;14.01;55.70
40574;BME280;26283;49.020;8.644;2023-03-22T05:54:56;98956.56;;;13.99;55.67
40574;BME280;26283;49.020;8.644;2023-03-22T05:57:22;98954.09;;;13.98;55.66
40574;BME280;26283;49.020;8.644;2023-03-22T05:59:47;98954.09;;;13.98;55.69
40574;BME280;26283;49.020;8.644;2023-03-22T06:02:12;98958.69;;;13.97;55.65
40574;BME280;26283;49.020;8.644;2023-03-22T06:04:38;98961.41;;;13.97;55.74
40574;BME280;26283;49.020;8.644;2023-03-22T06:07:06;98953.53;;;13.96;55.72
40574;BME280;26283;49.020;8.644;2023-03-22T06:09:31;98955.41;;;13.95;55.76
40574;BME280;26283;49.020;8.644;2023-03-22T06:11:57;98953.78;;;13.94;55.74
40574;BME280;26283;49.020;8.644;2023-03-22T06:14:22;98953.78;;;13.94;55.86
40574;BME280;26283;49.020;8.644;2023-03-22T06:16:48;98951.31;;;13.93;55.94
40574;BME280;26283;49.020;8.644;2023-03-22T06:19:13;98955.91;;;13.92;55.93
40574;BME280;26283;49.020;8.644;2023-03-22T06:21:39;98952.38;;;13.92;55.96
40574;BME280;26283;49.020;8.644;2023-03-22T06:24:04;98959.69;;;13.91;55.97
40574;BME280;26283;49.020;8.644;2023-03-22T06:26:30;98959.09;;;13.89;56.03
40574;BME280;26283;49.020;8.644;2023-03-22T06:28:55;98962.63;;;13.90;56.12
40574;BME280;26283;49.020;8.644;2023-03-22T06:31:20;98962.63;;;13.90;56.16
40574;BME280;26283;49.020;8.644;2023-03-22T06:33:46;98967.47;;;13.88;56.20
40574;BME280;26283;49.020;8.644;2023-03-22T06:36:11;98970.19;;;13.88;56.25
40574;BME280;26283;49.020;8.644;2023-03-22T06:38:36;98965.59;;;13.88;56.30
40574;BME280;26283;49.020;8.644;2023-03-22T06:41:02;98961.25;;;13.87;56.38
40574;BME280;26283;49.020;8.644;2023-03-22T06:43:27;98965.00;;;13.86;56.45
40574;BME280;26283;49.020;8.644;2023-03-22T06:45:53;98962.31;;;13.86;56.52
40574;BME280;26283;49.020;8.644;2023-03-22T06:48:18;98957.97;;;13.85;56.63
40574;BME280;26283;49.020;8.644;2023-03-22T06:50:44;98959.88;;;13.85;56.69
40574;BME280;26283;49.020;8.644;2023-03-22T06:53:09;98958.78;;;13.86;56.79
40574;BME280;26283;49.020;8.644;2023-03-22T06:55:34;98959.88;;;13.85;56.79
40574;BME280;26283;49.020;8.644;2023-03-22T06:58:00;98968.00;;;13.85;56.88
40574;BME280;26283;49.020;8.644;2023-03-22T07:00:26;98968.00;;;13.85;56.96
40574;BME280;26283;49.020;8.644;2023-03-22T07:02:52;98958.22;;;13.84;57.00
40574;BME280;26283;49.020;8.644;2023-03-22T07:05:18;98989.66;;;13.85;57.59
40574;BME280;26283;49.020;8.644;2023-03-22T07:07:43;98983.72;;;13.88;57.28
40574;BME280;26283;49.020;8.644;2023-03-22T07:10:10;98984.31;;;13.90;57.12
40574;BME280;26283;49.020;8.644;2023-03-22T07:12:35;98988.91;;;13.89;57.09
40574;BME280;26283;49.020;8.644;2023-03-22T07:15:01;98995.72;;;13.92;57.09
40574;BME280;26283;49.020;8.644;2023-03-22T07:17:26;98992.44;;;13.90;57.09
40574;BME280;26283;49.020;8.644;2023-03-22T07:19:52;98996.78;;;13.91;57.13
40574;BME280;26283;49.020;8.644;2023-03-22T07:22:17;98992.44;;;13.90;57.16
40574;BME280;26283;49.020;8.644;2023-03-22T07:24:49;98995.97;;;13.90;57.19
40574;BME280;26283;49.020;8.644;2023-03-22T07:27:16;99000.56;;;13.90;57.20
40574;BME280;26283;49.020;8.644;2023-03-22T07:29:41;99007.63;;;13.91;57.23
40574;BME280;26283;49.020;8.644;2023-03-22T07:32:07;98989.72;;;13.90;57.26
40574;BME280;26283;49.020;8.644;2023-03-22T07:34:33;98994.91;;;13.91;57.28
40574;BME280;26283;49.020;8.644;2023-03-22T07:36:58;98999.25;;;13.92;57.31
40574;BME280;26283;49.020;8.644;2023-03-22T07:39:24;98995.72;;;13.92;57.31
40574;BME280;26283;49.020;8.644;2023-03-22T07:41:50;98995.47;;;13.93;57.32
40574;BME280;26283;49.020;8.644;2023-03-22T07:44:17;99002.78;;;13.93;57.33
40574;BME280;26283;49.020;8.644;2023-03-22T07:46:42;99007.94;;;13.94;57.35
40574;BME280;26283;49.020;8.644;2023-03-22T07:49:08;99004.19;;;13.95;57.37
40574;BME280;26283;49.020;8.644;2023-03-22T07:51:33;99010.16;;;13.97;57.40
40574;BME280;26283;49.020;8.644;2023-03-22T07:54:00;98999.59;;;13.96;57.41
40574;BME280;26283;49.020;8.644;2023-03-22T07:56:25;99002.03;;;13.97;57.42
40574;BME280;26283;49.020;8.644;2023-03-22T07:58:51;99007.22;;;13.99;57.44
40574;BME280;26283;49.020;8.644;2023-03-22T08:01:16;99009.69;;;14.00;57.46
40574;BME280;26283;49.020;8.644;2023-03-22T08:03:42;99008.38;;;14.03;57.46
40574;BME280;26283;49.020;8.644;2023-03-22T08:06:07;99008.38;;;14.03;57.48
40574;BME280;26283;49.020;8.644;2023-03-22T08:08:34;99007.31;;;14.04;57.50
40574;BME280;26283;49.020;8.644;2023-03-22T08:11:01;99007.88;;;14.06;57.52
40574;BME280;26283;49.020;8.644;2023-03-22T08:13:26;99010.59;;;14.06;57.53
40574;BME280;26283;49.020;8.644;2023-03-22T08:15:52;99003.81;;;14.08;57.57
40574;BME280;26283;49.020;8.644;2023-03-22T08:18:17;99000.88;;;14.10;57.62
40574;BME280;26283;49.020;8.644;2023-03-22T08:20:42;98998.75;;;14.12;57.61
40574;BME280;26283;49.020;8.644;2023-03-22T08:23:10;99001.19;;;14.14;57.67
40574;BME280;26283;49.020;8.644;2023-03-22T08:25:41;98999.88;;;14.16;57.70
40574;BME280;26283;49.020;8.644;2023-03-22T08:28:07;98995.03;;;14.18;57.75
40574;BME280;26283;49.020;8.644;2023-03-22T08:30:32;99001.03;;;14.20;57.84
40574;BME280;26283;49.020;8.644;2023-03-22T08:32:58;99004.56;;;14.21;57.90
40574;BME280;26283;49.020;8.644;2023-03-22T08:35:23;99001.38;;;14.24;57.95
40574;BME280;26283;49.020;8.644;2023-03-22T08:37:53;98994.87;;;14.25;57.94
40574;BME280;26283;49.020;8.644;2023-03-22T08:40:18;98999.00;;;14.27;57.80
40574;BME280;26283;49.020;8.644;2023-03-22T08:42:44;98987.63;;;14.30;57.66
40574;BME280;26283;49.020;8.644;2023-03-22T08:45:09;98987.37;;;14.32;57.56
40574;BME280;26283;49.020;8.644;2023-03-22T08:47:35;98994.19;;;14.34;57.44
40574;BME280;26283;49.020;8.644;2023-03-22T08:50:00;98989.34;;;14.36;57.35
40574;BME280;26283;49.020;8.644;2023-03-22T08:52:26;98977.19;;;14.39;57.26
40574;BME280;26283;49.020;8.644;2023-03-22T08:54:51;98985.66;;;14.43;57.14
40574;BME280;26283;49.020;8.644;2023-03-22T08:57:18;98991.66;;;14.45;57.06
40574;BME280;26283;49.020;8.644;2023-03-22T08:59:45;98979.50;;;14.47;56.94
40574;BME280;26283;49.020;8.644;2023-03-22T09:02:11;98984.44;;;14.50;56.86
40574;BME280;26283;49.020;8.644;2023-03-22T09:04:36;98983.06;;;14.53;56.74
40574;BME280;26283;49.020;8.644;2023-03-22T09:07:01;98983.41;;;14.56;56.61
40574;BME280;26283;49.020;8.644;2023-03-22T09:09:27;98974.19;;;14.57;56.52
40574;BME280;26283;49.020;8.644;2023-03-22T09:11:52;98963.69;;;14.61;56.40
40574;BME280;26283;49.020;8.644;2023-03-22T09:14:17;98974.84;;;14.64;56.30
40574;BME280;26283;49.020;8.644;2023-03-22T09:16:43;98977.06;;;14.67;56.21
40574;BME280;26283;49.020;8.644;2023-03-22T09:19:09;98963.00;;;14.70;56.09
40574;BME280;26283;49.020;8.644;2023-03-22T09:21:35;98967.88;;;14.73;55.99
40574;BME280;26283;49.020;8.644;2023-03-22T09:24:00;98973.63;;;14.77;55.89
40574;BME280;26283;49.020;8.644;2023-03-22T09:26:26;98969.59;;;14.80;55.81
40574;BME280;26283;49.020;8.644;2023-03-22T09:28:52;98960.12;;;14.82;55.68
40574;BME280;26283;49.020;8.644;2023-03-22T09:31:17;98963.41;;;14.84;55.60
40574;BME280;26283;49.020;8.644;2023-03-22T09:33:43;98959.13;;;14.88;55.50
40574;BME280;26283;49.020;8.644;2023-03-22T09:36:09;98964.06;;;14.91;55.42
40574;BME280;26283;49.020;8.644;2023-03-22T09:38:36;98971.66;;;14.94;55.31
40574;BME280;26283;49.020;8.644;2023-03-22T09:41:16;98957.59;;;14.97;55.21
40574;BME280;26283;49.020;8.644;2023-03-22T09:43:49;98948.94;;;15.00;55.10
40574;BME280;26283;49.020;8.644;2023-03-22T09:46:46;98944.66;;;15.04;55.01
40574;BME280;26283;49.020;8.644;2023-03-22T09:49:17;98948.50;;;15.08;54.92
40574;BME280;26283;49.020;8.644;2023-03-22T09:51:46;98944.47;;;15.11;54.78
40574;BME280;26283;49.020;8.644;2023-03-22T09:56:54;98934.44;;;15.17;54.64
40574;BME280;26283;49.020;8.644;2023-03-22T09:59:32;98934.19;;;15.18;54.55
40574;BME280;26283;49.020;8.644;2023-03-22T10:02:01;98936.41;;;15.21;54.44
40574;BME280;26283;49.020;8.644;2023-03-22T10:15:18;98922.25;;;15.46;53.79
40574;BME280;26283;49.020;8.644;2023-03-22T10:17:50;98926.34;;;15.49;53.69
40574;BME280;26283;49.020;8.644;2023-03-22T10:22:42;98918.75;;;15.51;53.54
40574;BME280;26283;49.020;8.644;2023-03-22T10:25:15;98918.00;;;15.55;53.49
40574;BME280;26283;49.020;8.644;2023-03-22T10:27:41;98910.69;;;15.56;53.47
40574;BME280;26283;49.020;8.644;2023-03-22T10:30:26;98912.34;;;15.57;53.41
40574;BME280;26283;49.020;8.644;2023-03-22T10:35:22;98912.59;;;15.60;53.26
40574;BME280;26283;49.020;8.644;2023-03-22T10:37:48;98905.03;;;15.62;53.24
40574;BME280;26283;49.020;8.644;2023-03-22T10:40:23;98902.87;;;15.64;53.18
40574;BME280;26283;49.020;8.644;2023-03-22T10:42:58;98925.16;;;15.66;53.16
40574;BME280;26283;49.020;8.644;2023-03-22T10:45:25;98902.34;;;15.67;53.10
40574;BME280;26283;49.020;8.644;2023-03-22T10:47:57;98893.94;;;15.69;53.07
40574;BME280;26283;49.020;8.644;2023-03-22T10:50:31;98904.56;;;15.70;53.06
40574;BME280;26283;49.020;8.644;2023-03-22T10:53:11;98905.09;;;15.72;52.98
40574;BME280;26283;49.020;8.644;2023-03-22T10:55:41;98891.28;;;15.74;52.95
40574;BME280;26283;49.020;8.644;2023-03-22T11:00:36;98882.59;;;15.77;52.88
40574;BME280;26283;49.020;8.644;2023-03-22T11:03:04;98885.88;;;15.79;52.82
40574;BME280;26283;49.020;8.644;2023-03-22T11:05:30;98880.16;;;15.81;52.76
40574;BME280;26283;49.020;8.644;2023-03-22T11:07:57;98873.63;;;15.82;52.72
40574;BME280;26283;49.020;8.644;2023-03-22T11:10:26;98880.44;;;15.84;52.69
40574;BME280;26283;49.020;8.644;2023-03-22T11:13:15;98873.69;;;15.87;52.63
40574;BME280;26283;49.020;8.644;2023-03-22T11:15:53;98876.97;;;15.89;52.60
40574;BME280;26283;49.020;8.644;2023-03-22T11:18:20;98872.09;;;15.91;52.52
40574;BME280;26283;49.020;8.644;2023-03-22T11:21:13;98868.53;;;15.90;52.48
40574;BME280;26283;49.020;8.644;2023-03-22T11:23:44;98872.63;;;15.93;52.47
40574;BME280;26283;49.020;8.644;2023-03-22T11:26:13;98871.81;;;15.92;52.43
40574;BME280;26283;49.020;8.644;2023-03-22T11:28:46;98873.19;;;15.95;52.40
40574;BME280;26283;49.020;8.644;2023-03-22T11:31:16;98864.78;;;15.96;52.34
40574;BME280;26283;49.020;8.644;2023-03-22T11:33:59;98864.53;;;15.98;52.34
40574;BME280;26283;49.020;8.644;2023-03-22T11:36:26;98872.41;;;15.99;52.31
40574;BME280;26283;49.020;8.644;2023-03-22T11:38:59;98870.50;;;16.00;52.27
40574;BME280;26283;49.020;8.644;2023-03-22T11:41:29;98866.44;;;16.02;52.29
40574;BME280;26283;49.020;8.644;2023-03-22T11:43:59;98868.06;;;16.03;52.22
40574;BME280;26283;49.020;8.644;2023-03-22T11:46:26;98862.62;;;16.03;52.22
40574;BME280;26283;49.020;8.644;2023-03-22T11:48:57;98860.47;;;16.05;52.18
40574;BME280;26283;49.020;8.644;2023-03-22T11:51:28;98860.22;;;16.07;52.14
40574;BME280;26283;49.020;8.644;2023-03-22T11:54:14;98852.31;;;16.05;52.10
40574;BME280;26283;49.020;8.644;2023-03-22T11:56:47;98855.59;;;16.07;52.09
40574;BME280;26283;49.020;8.644;2023-03-22T12:04:38;98850.44;;;16.11;52.03
40574;BME280;26283;49.020;8.644;2023-03-22T12:07:13;98843.94;;;16.12;52.01
40574;BME280;26283;49.020;8.644;2023-03-22T12:09:43;98849.38;;;16.12;52.01
40574;BME280;26283;49.020;8.644;2023-03-22T12:12:19;98836.31;;;16.14;51.98
40574;BME280;26283;49.020;8.644;2023-03-22T12:14:53;98833.34;;;16.16;51.97
40574;BME280;26283;49.020;8.644;2023-03-22T12:22:53;98830.09;;;16.19;51.93
40574;BME280;26283;49.020;8.644;2023-03-22T12:25:22;98820.88;;;16.20;51.91
40574;BME280;26283;49.020;8.644;2023-03-22T12:27:53;98831.47;;;16.21;51.91
40574;BME280;26283;49.020;8.644;2023-03-22T12:30:22;98820.34;;;16.23;51.90
40574;BME280;26283;49.020;8.644;2023-03-22T12:35:43;98823.31;;;16.26;51.88
40574;BME280;26283;49.020;8.644;2023-03-22T12:38:31;98814.06;;;16.27;51.85
40574;BME280;26283;49.020;8.644;2023-03-22T12:41:03;98816.53;;;16.29;51.85
40574;BME280;26283;49.020;8.644;2023-03-22T12:46:21;98818.16;;;16.30;51.84
40574;BME280;26283;49.020;8.644;2023-03-22T12:48:59;98810.56;;;16.32;51.83
40574;BME280;26283;49.020;8.644;2023-03-22T12:51:25;98804.03;;;16.33;51.82
40574;BME280;26283;49.020;8.644;2023-03-22T12:53:53;98802.16;;;16.33;51.81
40574;BME280;26283;49.020;8.644;2023-03-22T12:56:32;98798.91;;;16.36;51.81
40574;BME280;26283;49.020;8.644;2023-03-22T12:59:05;98788.84;;;16.37;51.79
40574;BME280;26283;49.020;8.644;2023-03-22T13:04:45;98786.66;;;16.39;51.80
40574;BME280;26283;49.020;8.644;2023-03-22T13:09:50;98770.62;;;16.42;51.77
40574;BME280;26283;49.020;8.644;2023-03-22T13:19:52;98770.62;;;16.48;51.74
40574;BME280;26283;49.020;8.644;2023-03-22T13:22:28;98761.38;;;16.49;51.75
40574;BME280;26283;49.020;8.644;2023-03-22T13:27:33;98758.94;;;16.52;51.74
40574;BME280;26283;49.020;8.644;2023-03-22T13:29:59;98757.03;;;16.53;51.73
40574;BME280;26283;49.020;8.644;2023-03-22T13:32:30;98742.34;;;16.54;51.71
40574;BME280;26283;49.020;8.644;2023-03-22T13:34:58;98744.53;;;16.57;51.48
40574;BME280;26283;49.020;8.644;2023-03-22T13:37:34;98752.16;;;16.60;51.38
40574;BME280;26283;49.020;8.644;2023-03-22T13:40:33;98742.66;;;16.62;51.34
40574;BME280;26283;49.020;8.644;2023-03-22T13:43:11;98741.34;;;16.65;51.32
40574;BME280;26283;49.020;8.644;2023-03-22T13:48:42;98731.00;;;16.67;51.37
40574;BME280;26283;49.020;8.644;2023-03-22T13:53:55;98729.06;;;16.67;51.47
40574;BME280;26283;49.020;8.644;2023-03-22T13:58:59;98727.16;;;16.68;51.57
40574;BME280;26283;49.020;8.644;2023-03-22T14:01:41;98716.28;;;16.68;51.57
40574;BME280;26283;49.020;8.644;2023-03-22T14:04:15;98707.84;;;16.69;51.62
40574;BME280;26283;49.020;8.644;2023-03-22T14:06:56;98714.09;;;16.70;51.59
40574;BME280;26283;49.020;8.644;2023-03-22T14:09:30;98711.13;;;16.71;51.62
40574;BME280;26283;49.020;8.644;2023-03-22T14:12:51;98701.06;;;16.72;51.63
40574;BME280;26283;49.020;8.644;2023-03-22T14:15:14;98707.31;;;16.72;51.65
40574;BME280;26283;49.020;8.644;2023-03-22T14:17:55;98703.50;;;16.73;51.65
40574;BME280;26283;49.020;8.644;2023-03-22T14:20:24;98698.88;;;16.74;51.69
40574;BME280;26283;49.020;8.644;2023-03-22T14:22:55;98715.19;;;16.74;51.69
40574;BME280;26283;49.020;8.644;2023-03-22T14:25:25;98693.44;;;16.74;51.71
40574;BME280;26283;49.020;8.644;2023-03-22T14:27:51;98695.88;;;16.75;51.73
40574;BME280;26283;49.020;8.644;2023-03-22T14:32:59;98690.19;;;16.77;51.74
40574;BME280;26283;49.020;8.644;2023-03-22T14:35:54;98688.00;;;16.79;51.73
40574;BME280;26283;49.020;8.644;2023-03-22T14:38:25;98693.16;;;16.81;51.74
40574;BME280;26283;49.020;8.644;2023-03-22T14:41:24;98681.47;;;16.80;51.71
40574;BME280;26283;49.020;8.644;2023-03-22T14:43:58;98677.66;;;16.81;51.74
40574;BME280;26283;49.020;8.644;2023-03-22T14:46:30;98684.47;;;16.84;51.75
40574;BME280;26283;49.020;8.644;2023-03-22T14:49:00;98683.37;;;16.85;51.75